sensor_id;sensor_type;location;lat;lon;timestamp;temperature;humidity
9006;DHT22;62284;50.702;7.140;2022-10-26T00:01:04;14.30;99.90
9006;DHT22;62284;50.702;7.140;2022-10-26T00:03:32;14.30;99.90
9006;DHT22;62284;50.702;7.140;2022-10-26T00:06:07;14.20;99.90
9006;DHT22;62284;50.702;7.140;2022-10-26T00:08:35;14.30;99.90
9006;DHT22;62284;50.702;7.140;2022-10-26T00:11:03;14.30;99.90
9006;DHT22;62284;50.702;7.140;2022-10-26T00:13:30;14.20;99.90
9006;DHT22;62284;50.702;7.140;2022-10-26T00:15:57;14.30;99.90
9006;DHT22;62284;50.702;7.140;2022-10-26T00:18:25;14.30;99.90
9006;DHT22;62284;50.702;7.140;2022-10-26T00:20:52;14.30;99.90
9006;DHT22;62284;50.702;7.140;2022-10-26T00:23:19;14.30;99.90
9006;DHT22;62284;50.702;7.140;2022-10-26T00:25:53;14.30;99.90
9006;DHT22;62284;50.702;7.140;2022-10-26T00:28:20;14.40;99.90
9006;DHT22;62284;50.702;7.140;2022-10-26T00:30:47;14.40;99.90
9006;DHT22;62284;50.702;7.140;2022-10-26T00:33:14;14.40;99.90
9006;DHT22;62284;50.702;7.140;2022-10-26T00:35:42;14.40;99.90
9006;DHT22;62284;50.702;7.140;2022-10-26T00:38:09;14.40;99.90
9006;DHT22;62284;50.702;7.140;2022-10-26T00:40:36;14.50;99.90
9006;DHT22;62284;50.702;7.140;2022-10-26T00:43:05;14.40;99.90
9006;DHT22;62284;50.702;7.140;2022-10-26T00:45:32;14.50;99.90
9006;DHT22;62284;50.702;7.140;2022-10-26T00:48:01;14.40;99.90
9006;DHT22;62284;50.702;7.140;2022-10-26T00:50:33;14.50;99.90
9006;DHT22;62284;50.702;7.140;2022-10-26T00:53:02;14.50;99.90
9006;DHT22;62284;50.702;7.140;2022-10-26T00:55:32;14.50;99.90
9006;DHT22;62284;50.702;7.140;2022-10-26T00:58:01;14.50;99.90
9006;DHT22;62284;50.702;7.140;2022-10-26T01:00:30;14.50;99.90
9006;DHT22;62284;50.702;7.140;2022-10-26T01:03:00;14.50;99.90
9006;DHT22;62284;50.702;7.140;2022-10-26T01:05:28;14.50;99.90
9006;DHT22;62284;50.702;7.140;2022-10-26T01:07:57;14.50;99.90
9006;DHT22;62284;50.702;7.140;2022-10-26T01:10:26;14.50;99.90
9006;DHT22;62284;50.702;7.140;2022-10-26T01:12:55;14.50;99.90
9006;DHT22;62284;50.702;7.140;2022-10-26T01:15:32;14.50;99.90
9006;DHT22;62284;50.702;7.140;2022-10-26T01:18:06;14.50;99.90
9006;DHT22;62284;50.702;7.140;2022-10-26T01:20:49;14.50;99.90
9006;DHT22;62284;50.702;7.140;2022-10-26T01:23:25;14.60;99.90
9006;DHT22;62284;50.702;7.140;2022-10-26T01:26:17;14.60;99.90
9006;DHT22;62284;50.702;7.140;2022-10-26T01:31:49;14.50;99.90
9006;DHT22;62284;50.702;7.140;2022-10-26T01:34:20;14.60;99.90
9006;DHT22;62284;50.702;7.140;2022-10-26T01:36:53;14.60;99.90
9006;DHT22;62284;50.702;7.140;2022-10-26T01:39:24;14.60;99.90
9006;DHT22;62284;50.702;7.140;2022-10-26T01:41:56;14.60;99.90
9006;DHT22;62284;50.702;7.140;2022-10-26T01:44:27;14.60;99.90
9006;DHT22;62284;50.702;7.140;2022-10-26T01:46:58;14.70;99.90
9006;DHT22;62284;50.702;7.140;2022-10-26T01:49:28;14.70;99.90
9006;DHT22;62284;50.702;7.140;2022-10-26T01:51:55;14.70;99.90
9006;DHT22;62284;50.702;7.140;2022-10-26T01:54:23;14.70;99.90
9006;DHT22;62284;50.702;7.140;2022-10-26T01:56:52;14.70;99.90
9006;DHT22;62284;50.702;7.140;2022-10-26T01:59:33;14.70;99.90
9006;DHT22;62284;50.702;7.140;2022-10-26T02:08:14;14.80;99.90
9006;DHT22;62284;50.702;7.140;2022-10-26T02:10:56;14.80;99.90
9006;DHT22;62284;50.702;7.140;2022-10-26T02:13:32;14.80;99.90
9006;DHT22;62284;50.702;7.140;2022-10-26T02:16:09;14.80;99.90
9006;DHT22;62284;50.702;7.140;2022-10-26T02:18:46;14.90;99.90
9006;DHT22;62284;50.702;7.140;2022-10-26T02:21:19;14.80;99.90
9006;DHT22;62284;50.702;7.140;2022-10-26T02:23:48;14.80;99.90
9006;DHT22;62284;50.702;7.140;2022-10-26T02:26:20;14.80;99.90
9006;DHT22;62284;50.702;7.140;2022-10-26T02:28:50;14.90;99.90
9006;DHT22;62284;50.702;7.140;2022-10-26T02:31:20;14.90;99.90
9006;DHT22;62284;50.702;7.140;2022-10-26T02:33:50;14.90;99.90
9006;DHT22;62284;50.702;7.140;2022-10-26T02:36:22;15.00;99.90
9006;DHT22;62284;50.702;7.140;2022-10-26T02:38:52;15.00;99.90
9006;DHT22;62284;50.702;7.140;2022-10-26T02:41:21;15.00;99.90
9006;DHT22;62284;50.702;7.140;2022-10-26T02:43:52;15.00;99.90
9006;DHT22;62284;50.702;7.140;2022-10-26T02:46:21;15.00;99.90
9006;DHT22;62284;50.702;7.140;2022-10-26T02:48:50;15.00;99.90
9006;DHT22;62284;50.702;7.140;2022-10-26T02:51:22;15.00;99.90
9006;DHT22;62284;50.702;7.140;2022-10-26T02:53:54;15.00;99.90
9006;DHT22;62284;50.702;7.140;2022-10-26T02:56:27;15.00;99.90
9006;DHT22;62284;50.702;7.140;2022-10-26T02:58:58;14.90;99.90
9006;DHT22;62284;50.702;7.140;2022-10-26T03:01:26;14.90;99.90
9006;DHT22;62284;50.702;7.140;2022-10-26T03:03:58;14.90;99.90
9006;DHT22;62284;50.702;7.140;2022-10-26T03:06:25;14.90;99.90
9006;DHT22;62284;50.702;7.140;2022-10-26T03:08:52;14.90;99.90
9006;DHT22;62284;50.702;7.140;2022-10-26T03:11:19;14.80;99.90
9006;DHT22;62284;50.702;7.140;2022-10-26T03:13:46;14.80;99.90
9006;DHT22;62284;50.702;7.140;2022-10-26T03:16:13;14.80;99.90
9006;DHT22;62284;50.702;7.140;2022-10-26T03:18:40;14.90;99.90
9006;DHT22;62284;50.702;7.140;2022-10-26T03:21:08;14.90;99.90
9006;DHT22;62284;50.702;7.140;2022-10-26T03:23:35;14.90;99.90
9006;DHT22;62284;50.702;7.140;2022-10-26T03:26:02;14.90;99.90
9006;DHT22;62284;50.702;7.140;2022-10-26T03:28:29;14.90;99.90
9006;DHT22;62284;50.702;7.140;2022-10-26T03:30:55;14.90;99.90
9006;DHT22;62284;50.702;7.140;2022-10-26T03:33:22;14.80;99.90
9006;DHT22;62284;50.702;7.140;2022-10-26T03:35:53;14.80;99.90
9006;DHT22;62284;50.702;7.140;2022-10-26T03:38:22;14.90;99.90
9006;DHT22;62284;50.702;7.140;2022-10-26T03:40:49;14.90;99.90
9006;DHT22;62284;50.702;7.140;2022-10-26T03:43:16;14.90;99.90
9006;DHT22;62284;50.702;7.140;2022-10-26T03:45:43;14.80;99.90
9006;DHT22;62284;50.702;7.140;2022-10-26T03:48:10;14.80;99.90
9006;DHT22;62284;50.702;7.140;2022-10-26T03:50:37;14.90;99.90
9006;DHT22;62284;50.702;7.140;2022-10-26T03:53:04;14.90;99.90
9006;DHT22;62284;50.702;7.140;2022-10-26T03:55:32;14.90;99.90
9006;DHT22;62284;50.702;7.140;2022-10-26T03:57:59;14.80;99.90
9006;DHT22;62284;50.702;7.140;2022-10-26T04:00:26;14.80;99.90
9006;DHT22;62284;50.702;7.140;2022-10-26T04:02:54;14.80;99.90
9006;DHT22;62284;50.702;7.140;2022-10-26T04:05:21;14.80;99.90
9006;DHT22;62284;50.702;7.140;2022-10-26T04:07:51;14.80;99.90
9006;DHT22;62284;50.702;7.140;2022-10-26T04:10:18;14.80;99.90
9006;DHT22;62284;50.702;7.140;2022-10-26T04:12:47;14.70;99.90
9006;DHT22;62284;50.702;7.140;2022-10-26T04:15:14;14.60;99.90
9006;DHT22;62284;50.702;7.140;2022-10-26T04:17:41;14.70;99.90
9006;DHT22;62284;50.702;7.140;2022-10-26T04:20:09;14.60;99.90
9006;DHT22;62284;50.702;7.140;2022-10-26T04:22:36;14.60;99.90
9006;DHT22;62284;50.702;7.140;2022-10-26T04:25:03;14.60;99.90
9006;DHT22;62284;50.702;7.140;2022-10-26T04:27:30;14.60;99.90
9006;DHT22;62284;50.702;7.140;2022-10-26T04:29:58;14.60;99.90
9006;DHT22;62284;50.702;7.140;2022-10-26T04:32:26;14.70;99.90
9006;DHT22;62284;50.702;7.140;2022-10-26T04:34:52;14.80;99.90
9006;DHT22;62284;50.702;7.140;2022-10-26T04:37:19;14.80;99.90
9006;DHT22;62284;50.702;7.140;2022-10-26T04:39:46;14.80;99.90
9006;DHT22;62284;50.702;7.140;2022-10-26T04:42:13;14.80;99.90
9006;DHT22;62284;50.702;7.140;2022-10-26T04:44:40;14.80;99.90
9006;DHT22;62284;50.702;7.140;2022-10-26T04:47:08;14.80;99.90
9006;DHT22;62284;50.702;7.140;2022-10-26T04:49:35;14.80;99.90
9006;DHT22;62284;50.702;7.140;2022-10-26T04:52:02;14.80;99.90
9006;DHT22;62284;50.702;7.140;2022-10-26T04:54:30;14.80;99.90
9006;DHT22;62284;50.702;7.140;2022-10-26T04:56:57;14.80;99.90
9006;DHT22;62284;50.702;7.140;2022-10-26T04:59:24;14.80;99.90
9006;DHT22;62284;50.702;7.140;2022-10-26T05:01:51;14.80;99.90
9006;DHT22;62284;50.702;7.140;2022-10-26T05:04:20;14.80;99.90
9006;DHT22;62284;50.702;7.140;2022-10-26T05:06:46;14.80;99.90
9006;DHT22;62284;50.702;7.140;2022-10-26T05:09:13;14.80;99.90
9006;DHT22;62284;50.702;7.140;2022-10-26T05:11:40;14.80;99.90
9006;DHT22;62284;50.702;7.140;2022-10-26T05:14:07;14.70;99.90
9006;DHT22;62284;50.702;7.140;2022-10-26T05:16:34;14.70;99.90
9006;DHT22;62284;50.702;7.140;2022-10-26T05:19:01;14.70;99.90
9006;DHT22;62284;50.702;7.140;2022-10-26T05:21:29;14.70;99.90
9006;DHT22;62284;50.702;7.140;2022-10-26T05:23:56;14.70;99.90
9006;DHT22;62284;50.702;7.140;2022-10-26T05:26:24;14.60;99.90
9006;DHT22;62284;50.702;7.140;2022-10-26T05:28:51;14.60;99.90
9006;DHT22;62284;50.702;7.140;2022-10-26T05:31:18;14.70;99.90
9006;DHT22;62284;50.702;7.140;2022-10-26T05:33:47;14.70;99.90
9006;DHT22;62284;50.702;7.140;2022-10-26T05:36:15;14.70;99.90
9006;DHT22;62284;50.702;7.140;2022-10-26T05:38:43;14.70;99.90
9006;DHT22;62284;50.702;7.140;2022-10-26T05:41:10;14.70;99.90
9006;DHT22;62284;50.702;7.140;2022-10-26T05:43:37;14.70;99.90
9006;DHT22;62284;50.702;7.140;2022-10-26T05:46:04;14.80;99.90
9006;DHT22;62284;50.702;7.140;2022-10-26T05:48:31;14.80;99.90
9006;DHT22;62284;50.702;7.140;2022-10-26T05:50:58;14.80;99.90
9006;DHT22;62284;50.702;7.140;2022-10-26T05:53:26;14.80;99.90
9006;DHT22;62284;50.702;7.140;2022-10-26T05:55:55;14.80;99.90
9006;DHT22;62284;50.702;7.140;2022-10-26T05:58:23;14.90;99.90
9006;DHT22;62284;50.702;7.140;2022-10-26T06:01:01;14.90;99.90
9006;DHT22;62284;50.702;7.140;2022-10-26T06:03:41;14.90;99.90
9006;DHT22;62284;50.702;7.140;2022-10-26T06:06:11;14.90;99.90
9006;DHT22;62284;50.702;7.140;2022-10-26T06:08:39;14.90;99.90
9006;DHT22;62284;50.702;7.140;2022-10-26T06:11:09;14.80;99.90
9006;DHT22;62284;50.702;7.140;2022-10-26T06:13:37;14.90;99.90
9006;DHT22;62284;50.702;7.140;2022-10-26T06:16:20;14.90;99.90
9006;DHT22;62284;50.702;7.140;2022-10-26T06:18:57;14.90;99.90
9006;DHT22;62284;50.702;7.140;2022-10-26T06:21:36;14.90;99.90
9006;DHT22;62284;50.702;7.140;2022-10-26T06:24:08;14.80;99.90
9006;DHT22;62284;50.702;7.140;2022-10-26T06:26:47;14.90;99.90
9006;DHT22;62284;50.702;7.140;2022-10-26T06:29:23;14.90;99.90
9006;DHT22;62284;50.702;7.140;2022-10-26T06:31:53;14.90;99.90
9006;DHT22;62284;50.702;7.140;2022-10-26T06:34:25;14.90;99.90
9006;DHT22;62284;50.702;7.140;2022-10-26T06:36:54;14.90;99.90
9006;DHT22;62284;50.702;7.140;2022-10-26T06:39:24;14.90;99.90
9006;DHT22;62284;50.702;7.140;2022-10-26T06:41:55;14.90;99.90
9006;DHT22;62284;50.702;7.140;2022-10-26T06:44:23;14.90;99.90
9006;DHT22;62284;50.702;7.140;2022-10-26T06:46:56;14.90;99.90
9006;DHT22;62284;50.702;7.140;2022-10-26T06:49:29;14.90;99.90
9006;DHT22;62284;50.702;7.140;2022-10-26T06:51:58;14.90;99.90
9006;DHT22;62284;50.702;7.140;2022-10-26T06:54:34;14.90;99.90
9006;DHT22;62284;50.702;7.140;2022-10-26T06:57:09;14.90;99.90
9006;DHT22;62284;50.702;7.140;2022-10-26T06:59:41;15.00;99.90
9006;DHT22;62284;50.702;7.140;2022-10-26T07:02:08;15.00;99.90
9006;DHT22;62284;50.702;7.140;2022-10-26T07:04:37;15.00;99.90
9006;DHT22;62284;50.702;7.140;2022-10-26T07:07:04;15.00;99.90
9006;DHT22;62284;50.702;7.140;2022-10-26T07:09:31;15.00;99.90
9006;DHT22;62284;50.702;7.140;2022-10-26T07:11:57;15.00;99.90
9006;DHT22;62284;50.702;7.140;2022-10-26T07:14:26;15.00;99.90
9006;DHT22;62284;50.702;7.140;2022-10-26T07:16:53;15.00;99.90
9006;DHT22;62284;50.702;7.140;2022-10-26T07:19:21;15.10;99.90
9006;DHT22;62284;50.702;7.140;2022-10-26T07:21:48;15.10;99.90
9006;DHT22;62284;50.702;7.140;2022-10-26T07:24:15;15.10;99.90
9006;DHT22;62284;50.702;7.140;2022-10-26T07:26:42;15.20;99.90
9006;DHT22;62284;50.702;7.140;2022-10-26T07:29:09;15.20;99.90
9006;DHT22;62284;50.702;7.140;2022-10-26T07:31:37;15.30;99.90
9006;DHT22;62284;50.702;7.140;2022-10-26T07:34:04;15.30;99.90
9006;DHT22;62284;50.702;7.140;2022-10-26T07:36:31;15.40;99.90
9006;DHT22;62284;50.702;7.140;2022-10-26T07:38:58;15.40;99.90
9006;DHT22;62284;50.702;7.140;2022-10-26T07:41:25;15.40;99.90
9006;DHT22;62284;50.702;7.140;2022-10-26T07:43:51;15.30;99.90
9006;DHT22;62284;50.702;7.140;2022-10-26T07:46:18;15.30;99.90
9006;DHT22;62284;50.702;7.140;2022-10-26T07:48:47;15.40;99.90
9006;DHT22;62284;50.702;7.140;2022-10-26T07:51:14;15.40;99.90
9006;DHT22;62284;50.702;7.140;2022-10-26T07:53:40;15.50;99.90
9006;DHT22;62284;50.702;7.140;2022-10-26T07:56:08;15.50;99.90
9006;DHT22;62284;50.702;7.140;2022-10-26T07:58:35;15.50;99.90
9006;DHT22;62284;50.702;7.140;2022-10-26T08:01:05;15.40;99.90
9006;DHT22;62284;50.702;7.140;2022-10-26T08:03:32;15.40;99.90
9006;DHT22;62284;50.702;7.140;2022-10-26T08:06:01;15.30;99.90
9006;DHT22;62284;50.702;7.140;2022-10-26T08:08:29;15.30;99.90
9006;DHT22;62284;50.702;7.140;2022-10-26T08:10:56;15.20;99.90
9006;DHT22;62284;50.702;7.140;2022-10-26T08:13:23;15.20;99.90
9006;DHT22;62284;50.702;7.140;2022-10-26T08:15:55;15.30;99.90
9006;DHT22;62284;50.702;7.140;2022-10-26T08:18:22;15.30;99.90
9006;DHT22;62284;50.702;7.140;2022-10-26T08:20:49;15.20;99.90
9006;DHT22;62284;50.702;7.140;2022-10-26T08:23:17;15.30;99.90
9006;DHT22;62284;50.702;7.140;2022-10-26T08:25:44;15.30;99.90
9006;DHT22;62284;50.702;7.140;2022-10-26T08:28:11;15.30;99.90
9006;DHT22;62284;50.702;7.140;2022-10-26T08:30:38;15.40;99.90
9006;DHT22;62284;50.702;7.140;2022-10-26T08:33:06;15.60;99.90
9006;DHT22;62284;50.702;7.140;2022-10-26T08:35:33;15.80;99.90
9006;DHT22;62284;50.702;7.140;2022-10-26T08:38:00;15.90;99.90
9006;DHT22;62284;50.702;7.140;2022-10-26T08:40:30;16.10;99.90
9006;DHT22;62284;50.702;7.140;2022-10-26T08:43:00;16.30;99.90
9006;DHT22;62284;50.702;7.140;2022-10-26T08:45:32;16.50;99.90
9006;DHT22;62284;50.702;7.140;2022-10-26T08:48:05;16.60;99.90
9006;DHT22;62284;50.702;7.140;2022-10-26T08:50:39;16.80;99.90
9006;DHT22;62284;50.702;7.140;2022-10-26T08:53:12;17.00;99.90
9006;DHT22;62284;50.702;7.140;2022-10-26T08:55:45;17.30;99.90
9006;DHT22;62284;50.702;7.140;2022-10-26T08:58:15;17.40;99.90
9006;DHT22;62284;50.702;7.140;2022-10-26T09:00:44;17.50;99.90
9006;DHT22;62284;50.702;7.140;2022-10-26T09:03:13;17.40;99.90
9006;DHT22;62284;50.702;7.140;2022-10-26T09:05:51;17.30;99.90
9006;DHT22;62284;50.702;7.140;2022-10-26T09:08:27;17.30;99.90
9006;DHT22;62284;50.702;7.140;2022-10-26T09:11:03;17.30;99.90
9006;DHT22;62284;50.702;7.140;2022-10-26T09:13:37;17.20;99.90
9006;DHT22;62284;50.702;7.140;2022-10-26T09:16:12;17.20;99.90
9006;DHT22;62284;50.702;7.140;2022-10-26T09:18:47;17.20;99.90
9006;DHT22;62284;50.702;7.140;2022-10-26T09:21:22;17.30;99.90
9006;DHT22;62284;50.702;7.140;2022-10-26T09:24:00;17.30;99.90
9006;DHT22;62284;50.702;7.140;2022-10-26T09:26:48;17.40;99.90
9006;DHT22;62284;50.702;7.140;2022-10-26T09:29:18;17.60;99.90
9006;DHT22;62284;50.702;7.140;2022-10-26T09:31:47;17.80;99.90
9006;DHT22;62284;50.702;7.140;2022-10-26T09:34:28;18.00;99.90
9006;DHT22;62284;50.702;7.140;2022-10-26T09:36:57;18.40;99.90
9006;DHT22;62284;50.702;7.140;2022-10-26T09:39:30;18.60;99.90
9006;DHT22;62284;50.702;7.140;2022-10-26T09:42:04;19.00;99.90
9006;DHT22;62284;50.702;7.140;2022-10-26T09:44:39;19.20;99.90
9006;DHT22;62284;50.702;7.140;2022-10-26T09:47:15;19.30;99.90
9006;DHT22;62284;50.702;7.140;2022-10-26T09:49:52;19.50;99.90
9006;DHT22;62284;50.702;7.140;2022-10-26T09:52:21;20.10;99.90
9006;DHT22;62284;50.702;7.140;2022-10-26T09:54:48;20.70;98.80
9006;DHT22;62284;50.702;7.140;2022-10-26T09:57:18;20.80;98.90
9006;DHT22;62284;50.702;7.140;2022-10-26T09:59:46;21.10;98.40
9006;DHT22;62284;50.702;7.140;2022-10-26T10:02:34;21.20;98.40
9006;DHT22;62284;50.702;7.140;2022-10-26T10:05:01;21.70;97.50
9006;DHT22;62284;50.702;7.140;2022-10-26T10:07:28;23.10;97.00
9006;DHT22;62284;50.702;7.140;2022-10-26T10:10:13;25.30;94.00
9006;DHT22;62284;50.702;7.140;2022-10-26T10:12:42;27.60;92.60
9006;DHT22;62284;50.702;7.140;2022-10-26T10:15:16;27.70;90.20
9006;DHT22;62284;50.702;7.140;2022-10-26T10:17:50;26.40;86.30
9006;DHT22;62284;50.702;7.140;2022-10-26T10:20:20;25.20;93.30
9006;DHT22;62284;50.702;7.140;2022-10-26T10:22:55;25.00;95.90
9006;DHT22;62284;50.702;7.140;2022-10-26T10:25:30;26.10;81.30
9006;DHT22;62284;50.702;7.140;2022-10-26T10:27:59;26.50;77.80
9006;DHT22;62284;50.702;7.140;2022-10-26T10:30:29;27.40;77.20
9006;DHT22;62284;50.702;7.140;2022-10-26T10:33:04;29.10;78.70
9006;DHT22;62284;50.702;7.140;2022-10-26T10:35:31;30.80;70.80
9006;DHT22;62284;50.702;7.140;2022-10-26T10:37:58;31.00;66.20
9006;DHT22;62284;50.702;7.140;2022-10-26T10:40:26;31.10;65.70
9006;DHT22;62284;50.702;7.140;2022-10-26T10:43:04;31.80;62.10
9006;DHT22;62284;50.702;7.140;2022-10-26T10:45:32;31.80;61.30
9006;DHT22;62284;50.702;7.140;2022-10-26T10:48:02;31.20;57.10
9006;DHT22;62284;50.702;7.140;2022-10-26T10:50:31;30.70;57.70
9006;DHT22;62284;50.702;7.140;2022-10-26T10:53:16;29.80;58.10
9006;DHT22;62284;50.702;7.140;2022-10-26T10:55:56;28.70;55.00
9006;DHT22;62284;50.702;7.140;2022-10-26T10:58:34;27.80;57.60
9006;DHT22;62284;50.702;7.140;2022-10-26T11:01:03;29.30;60.00
9006;DHT22;62284;50.702;7.140;2022-10-26T11:06:10;32.70;48.30
9006;DHT22;62284;50.702;7.140;2022-10-26T11:08:43;31.90;48.50
9006;DHT22;62284;50.702;7.140;2022-10-26T11:11:14;30.80;50.00
9006;DHT22;62284;50.702;7.140;2022-10-26T11:13:49;31.50;49.80
9006;DHT22;62284;50.702;7.140;2022-10-26T11:16:21;32.80;47.20
9006;DHT22;62284;50.702;7.140;2022-10-26T11:18:52;32.50;45.00
9006;DHT22;62284;50.702;7.140;2022-10-26T11:21:24;32.70;46.50
9006;DHT22;62284;50.702;7.140;2022-10-26T11:23:59;32.50;45.10
9006;DHT22;62284;50.702;7.140;2022-10-26T11:26:33;31.30;46.20
9006;DHT22;62284;50.702;7.140;2022-10-26T11:29:09;31.00;48.30
9006;DHT22;62284;50.702;7.140;2022-10-26T11:31:40;31.30;46.70
9006;DHT22;62284;50.702;7.140;2022-10-26T11:34:20;33.10;46.60
9006;DHT22;62284;50.702;7.140;2022-10-26T11:36:53;33.50;43.60
9006;DHT22;62284;50.702;7.140;2022-10-26T11:39:27;34.90;42.90
9006;DHT22;62284;50.702;7.140;2022-10-26T11:42:01;33.70;41.70
9006;DHT22;62284;50.702;7.140;2022-10-26T11:44:36;33.10;44.60
9006;DHT22;62284;50.702;7.140;2022-10-26T11:47:08;33.40;43.90
9006;DHT22;62284;50.702;7.140;2022-10-26T11:49:42;34.40;42.40
9006;DHT22;62284;50.702;7.140;2022-10-26T11:52:13;35.20;40.50
9006;DHT22;62284;50.702;7.140;2022-10-26T11:54:45;35.60;41.10
9006;DHT22;62284;50.702;7.140;2022-10-26T11:57:14;36.40;39.20
9006;DHT22;62284;50.702;7.140;2022-10-26T11:59:48;36.30;38.50
9006;DHT22;62284;50.702;7.140;2022-10-26T12:02:18;35.70;38.60
9006;DHT22;62284;50.702;7.140;2022-10-26T12:04:51;35.70;39.70
9006;DHT22;62284;50.702;7.140;2022-10-26T12:07:23;36.60;39.50
9006;DHT22;62284;50.702;7.140;2022-10-26T12:09:50;37.20;38.30
9006;DHT22;62284;50.702;7.140;2022-10-26T12:12:23;36.70;37.10
9006;DHT22;62284;50.702;7.140;2022-10-26T12:14:56;36.90;37.20
9006;DHT22;62284;50.702;7.140;2022-10-26T12:17:30;36.60;37.40
9006;DHT22;62284;50.702;7.140;2022-10-26T12:20:05;36.50;37.90
9006;DHT22;62284;50.702;7.140;2022-10-26T12:22:37;36.10;37.30
9006;DHT22;62284;50.702;7.140;2022-10-26T12:25:17;35.60;36.90
9006;DHT22;62284;50.702;7.140;2022-10-26T12:27:53;34.20;38.60
9006;DHT22;62284;50.702;7.140;2022-10-26T12:30:39;32.20;41.60
9006;DHT22;62284;50.702;7.140;2022-10-26T12:35:53;29.90;45.40
9006;DHT22;62284;50.702;7.140;2022-10-26T12:38:56;28.70;47.60
9006;DHT22;62284;50.702;7.140;2022-10-26T12:41:26;27.70;50.20
9006;DHT22;62284;50.702;7.140;2022-10-26T12:43:56;27.00;52.50
9006;DHT22;62284;50.702;7.140;2022-10-26T12:46:43;27.30;52.40
9006;DHT22;62284;50.702;7.140;2022-10-26T12:52:42;27.90;51.00
9006;DHT22;62284;50.702;7.140;2022-10-26T13:05:33;27.00;52.90
9006;DHT22;62284;50.702;7.140;2022-10-26T13:08:05;26.90;54.60
9006;DHT22;62284;50.702;7.140;2022-10-26T13:10:34;27.40;54.00
9006;DHT22;62284;50.702;7.140;2022-10-26T13:13:04;28.10;52.70
9006;DHT22;62284;50.702;7.140;2022-10-26T13:15:36;28.60;50.90
9006;DHT22;62284;50.702;7.140;2022-10-26T13:18:08;28.60;50.60
9006;DHT22;62284;50.702;7.140;2022-10-26T13:20:51;28.70;50.60
9006;DHT22;62284;50.702;7.140;2022-10-26T13:23:24;28.50;50.10
9006;DHT22;62284;50.702;7.140;2022-10-26T13:26:03;28.50;51.00
9006;DHT22;62284;50.702;7.140;2022-10-26T13:28:41;28.40;51.20
9006;DHT22;62284;50.702;7.140;2022-10-26T13:31:11;28.20;51.40
9006;DHT22;62284;50.702;7.140;2022-10-26T13:33:41;27.80;51.20
9006;DHT22;62284;50.702;7.140;2022-10-26T13:36:17;27.40;53.00
9006;DHT22;62284;50.702;7.140;2022-10-26T13:38:46;27.30;53.10
9006;DHT22;62284;50.702;7.140;2022-10-26T13:41:24;26.90;53.50
9006;DHT22;62284;50.702;7.140;2022-10-26T13:43:53;27.00;54.10
9006;DHT22;62284;50.702;7.140;2022-10-26T13:46:26;26.60;54.30
9006;DHT22;62284;50.702;7.140;2022-10-26T13:48:58;26.30;55.00
9006;DHT22;62284;50.702;7.140;2022-10-26T13:51:38;26.40;55.30
9006;DHT22;62284;50.702;7.140;2022-10-26T13:54:18;26.20;55.50
9006;DHT22;62284;50.702;7.140;2022-10-26T13:57:04;26.10;55.60
9006;DHT22;62284;50.702;7.140;2022-10-26T13:59:37;26.20;55.50
9006;DHT22;62284;50.702;7.140;2022-10-26T14:02:14;26.20;56.50
9006;DHT22;62284;50.702;7.140;2022-10-26T14:04:44;25.80;56.10
9006;DHT22;62284;50.702;7.140;2022-10-26T14:07:15;25.90;55.70
9006;DHT22;62284;50.702;7.140;2022-10-26T14:09:49;25.80;55.90
9006;DHT22;62284;50.702;7.140;2022-10-26T14:12:16;25.60;56.80
9006;DHT22;62284;50.702;7.140;2022-10-26T14:14:43;25.60;57.20
9006;DHT22;62284;50.702;7.140;2022-10-26T14:17:19;25.60;56.80
9006;DHT22;62284;50.702;7.140;2022-10-26T14:19:47;25.50;56.80
9006;DHT22;62284;50.702;7.140;2022-10-26T14:22:21;25.50;56.60
9006;DHT22;62284;50.702;7.140;2022-10-26T14:24:53;25.50;56.70
9006;DHT22;62284;50.702;7.140;2022-10-26T14:27:22;25.30;56.60
9006;DHT22;62284;50.702;7.140;2022-10-26T14:29:51;25.30;57.40
9006;DHT22;62284;50.702;7.140;2022-10-26T14:32:20;25.30;56.90
9006;DHT22;62284;50.702;7.140;2022-10-26T14:34:47;25.30;56.90
9006;DHT22;62284;50.702;7.140;2022-10-26T14:37:24;25.10;56.80
9006;DHT22;62284;50.702;7.140;2022-10-26T14:39:54;25.00;57.50
9006;DHT22;62284;50.702;7.140;2022-10-26T14:42:25;24.90;57.90
9006;DHT22;62284;50.702;7.140;2022-10-26T14:44:54;25.10;59.10
9006;DHT22;62284;50.702;7.140;2022-10-26T14:47:23;25.00;58.10
9006;DHT22;62284;50.702;7.140;2022-10-26T14:49:51;24.90;58.20
9006;DHT22;62284;50.702;7.140;2022-10-26T14:52:21;24.80;58.90
9006;DHT22;62284;50.702;7.140;2022-10-26T14:54:58;24.90;60.80
9006;DHT22;62284;50.702;7.140;2022-10-26T14:57:31;24.90;60.20
9006;DHT22;62284;50.702;7.140;2022-10-26T15:00:00;24.80;61.00
9006;DHT22;62284;50.702;7.140;2022-10-26T15:02:28;24.70;61.90
9006;DHT22;62284;50.702;7.140;2022-10-26T15:04:59;24.60;61.70
9006;DHT22;62284;50.702;7.140;2022-10-26T15:07:34;24.50;61.50
9006;DHT22;62284;50.702;7.140;2022-10-26T15:10:04;24.50;62.60
9006;DHT22;62284;50.702;7.140;2022-10-26T15:12:32;24.50;62.00
9006;DHT22;62284;50.702;7.140;2022-10-26T15:15:09;24.40;65.00
9006;DHT22;62284;50.702;7.140;2022-10-26T15:17:41;24.30;66.30
9006;DHT22;62284;50.702;7.140;2022-10-26T15:20:15;24.20;67.70
9006;DHT22;62284;50.702;7.140;2022-10-26T15:22:47;23.90;71.20
9006;DHT22;62284;50.702;7.140;2022-10-26T15:25:19;23.70;73.30
9006;DHT22;62284;50.702;7.140;2022-10-26T15:27:47;23.70;73.00
9006;DHT22;62284;50.702;7.140;2022-10-26T15:30:21;23.50;75.00
9006;DHT22;62284;50.702;7.140;2022-10-26T15:32:49;23.50;74.50
9006;DHT22;62284;50.702;7.140;2022-10-26T15:35:25;23.30;74.50
9006;DHT22;62284;50.702;7.140;2022-10-26T15:37:54;23.20;76.00
9006;DHT22;62284;50.702;7.140;2022-10-26T15:40:24;23.00;76.70
9006;DHT22;62284;50.702;7.140;2022-10-26T15:42:52;22.90;79.40
9006;DHT22;62284;50.702;7.140;2022-10-26T15:45:21;22.70;85.60
9006;DHT22;62284;50.702;7.140;2022-10-26T15:47:50;22.40;85.50
9006;DHT22;62284;50.702;7.140;2022-10-26T15:50:19;22.20;85.50
9006;DHT22;62284;50.702;7.140;2022-10-26T15:52:47;22.00;89.50
9006;DHT22;62284;50.702;7.140;2022-10-26T15:55:14;21.70;90.90
9006;DHT22;62284;50.702;7.140;2022-10-26T15:57:42;21.60;92.10
9006;DHT22;62284;50.702;7.140;2022-10-26T16:00:14;21.50;92.20
9006;DHT22;62284;50.702;7.140;2022-10-26T16:02:42;21.50;92.60
9006;DHT22;62284;50.702;7.140;2022-10-26T16:05:10;21.40;92.60
9006;DHT22;62284;50.702;7.140;2022-10-26T16:07:39;21.20;94.70
9006;DHT22;62284;50.702;7.140;2022-10-26T16:10:12;21.00;95.60
9006;DHT22;62284;50.702;7.140;2022-10-26T16:12:42;21.10;95.40
9006;DHT22;62284;50.702;7.140;2022-10-26T16:15:16;21.00;95.60
9006;DHT22;62284;50.702;7.140;2022-10-26T16:17:43;21.10;95.40
9006;DHT22;62284;50.702;7.140;2022-10-26T16:20:13;20.90;94.90
9006;DHT22;62284;50.702;7.140;2022-10-26T16:22:41;20.80;99.90
9006;DHT22;62284;50.702;7.140;2022-10-26T16:25:13;20.70;99.70
9006;DHT22;62284;50.702;7.140;2022-10-26T16:27:42;20.40;99.60
9006;DHT22;62284;50.702;7.140;2022-10-26T16:30:10;20.30;99.50
9006;DHT22;62284;50.702;7.140;2022-10-26T16:32:38;20.20;99.90
9006;DHT22;62284;50.702;7.140;2022-10-26T16:35:06;20.20;99.90